Time;durP1;ratioP1;P1;durP2;ratioP2;P2;SDS_P1;SDS_P2;PMS_P1;PMS_P2;Temp;Humidity;BMP_temperature;BMP_pressure;BME280_temperature;BME280_humidity;BME280_pressure;Samples;Min_cycle;Max_cycle;Signal;HPM_P1;HPM_P2
2023/09/08 00:17:36;;;;;;;13.63;11.95;;;17.40;84.60;;;;;;5016321;28;20220;-85
2023/09/08 00:20:05;;;;;;;13.75;12.35;;;17.40;84.60;;;;;;5014393;28;20205;-86
2023/09/08 00:22:31;;;;;;;13.85;12.48;;;17.30;84.60;;;;;;5016101;28;20166;-86
2023/09/08 00:24:56;;;;;;;13.75;12.35;;;17.30;84.60;;;;;;5016489;28;20668;-85
2023/09/08 00:27:22;;;;;;;14.52;12.25;;;17.30;84.60;;;;;;5014337;28;20189;-86
2023/09/08 00:29:47;;;;;;;15.48;11.68;;;17.30;84.60;;;;;;5014357;28;20197;-85
2023/09/08 00:32:13;;;;;;;19.30;13.95;;;17.20;84.60;;;;;;5015640;28;20181;-84
2023/09/08 00:34:40;;;;;;;14.35;11.75;;;17.20;84.50;;;;;;5012632;28;20183;-85
2023/09/08 00:37:07;;;;;;;14.07;12.50;;;17.20;84.50;;;;;;5014561;28;20196;-84
2023/09/08 00:39:35;;;;;;;14.48;12.30;;;17.20;84.50;;;;;;5014846;28;20193;-85
2023/09/08 00:42:01;;;;;;;13.05;11.77;;;17.10;84.50;;;;;;5013651;28;20188;-85
2023/09/08 00:44:26;;;;;;;13.93;12.57;;;17.10;84.50;;;;;;5014653;28;20212;-85
2023/09/08 00:46:52;;;;;;;15.18;13.80;;;17.00;84.50;;;;;;5016273;28;20173;-86
2023/09/08 00:49:18;;;;;;;13.55;12.25;;;17.00;84.50;;;;;;5013208;28;20182;-83
2023/09/08 00:51:44;;;;;;;15.35;12.80;;;17.00;84.50;;;;;;5014295;28;20173;-85
2023/09/08 00:54:09;;;;;;;16.35;11.80;;;16.90;84.40;;;;;;5012846;28;20240;-85
2023/09/08 00:56:38;;;;;;;18.30;12.32;;;16.90;84.40;;;;;;5018014;28;20220;-85
2023/09/08 01:01:39;;;;;;;12.95;11.50;;;16.90;84.40;;;;;;5420469;22;20244;-86
2023/09/08 01:04:05;;;;;;;12.65;11.00;;;16.90;84.50;;;;;;5023542;28;20173;-86
2023/09/08 01:06:32;;;;;;;12.63;11.52;;;16.90;84.50;;;;;;5023441;28;20173;-86
2023/09/08 01:08:59;;;;;;;12.07;11.07;;;16.90;84.50;;;;;;5024027;28;20304;-86
2023/09/08 01:11:26;;;;;;;12.45;11.25;;;16.80;84.50;;;;;;5023166;28;20284;-87
2023/09/08 01:13:52;;;;;;;12.48;10.38;;;16.80;84.40;;;;;;5027277;28;20268;-88
2023/09/08 01:16:18;;;;;;;13.35;10.88;;;16.70;84.50;;;;;;5024444;28;20205;-86
2023/09/08 01:18:48;;;;;;;11.90;10.70;;;16.70;84.30;;;;;;5025620;28;20193;-86
2023/09/08 01:21:19;;;;;;;11.95;10.75;;;16.60;84.30;;;;;;5023735;28;20197;-87
2023/09/08 01:24:17;;;;;;;11.88;10.88;;;16.60;84.30;;;;;;5025444;28;20162;-86
2023/09/08 01:26:43;;;;;;;12.40;11.32;;;16.50;84.10;;;;;;5025205;28;20220;-86
2023/09/08 01:29:11;;;;;;;12.50;11.30;;;16.50;83.90;;;;;;5026188;28;20225;-86
2023/09/08 01:31:38;;;;;;;12.65;11.48;;;16.50;83.80;;;;;;5024486;28;20219;-86
2023/09/08 01:34:06;;;;;;;15.32;13.82;;;16.40;83.60;;;;;;5025559;28;20180;-86
2023/09/08 01:36:35;;;;;;;14.23;12.95;;;16.40;83.60;;;;;;5026055;28;20205;-86
2023/09/08 01:39:01;;;;;;;14.07;12.90;;;16.40;83.90;;;;;;5024159;28;20173;-87
2023/09/08 01:41:27;;;;;;;14.15;12.95;;;16.30;84.40;;;;;;5024118;28;20291;-86
2023/09/08 01:43:52;;;;;;;14.32;12.90;;;16.30;84.60;;;;;;5025325;28;20173;-86
2023/09/08 01:46:18;;;;;;;14.15;12.30;;;16.30;84.70;;;;;;5024790;28;20312;-85
2023/09/08 01:48:44;;;;;;;13.70;12.35;;;16.30;84.80;;;;;;5024232;28;20176;-86
2023/09/08 01:51:10;;;;;;;13.80;12.50;;;16.30;84.70;;;;;;5025507;28;20260;-86
2023/09/08 01:53:35;;;;;;;17.90;11.90;;;16.30;84.60;;;;;;5026370;28;20188;-86
2023/09/08 01:56:01;;;;;;;22.02;20.17;;;16.30;84.60;;;;;;5025391;28;20667;-87
2023/09/08 01:58:26;;;;;;;23.48;21.67;;;16.20;84.70;;;;;;5025400;28;20217;-87
2023/09/08 02:00:52;;;;;;;18.60;17.25;;;16.20;84.70;;;;;;5025034;28;20209;-87
2023/09/08 02:03:17;;;;;;;13.27;11.98;;;16.20;84.80;;;;;;5026509;28;20176;-87
2023/09/08 02:05:44;;;;;;;12.93;11.63;;;16.10;84.90;;;;;;5024874;28;20211;-86
2023/09/08 02:08:09;;;;;;;21.70;19.63;;;16.10;84.80;;;;;;5024566;28;20209;-87
2023/09/08 02:10:35;;;;;;;22.05;20.45;;;16.00;85.00;;;;;;5025434;28;20197;-86
2023/09/08 02:13:00;;;;;;;24.08;22.27;;;15.90;85.10;;;;;;5026810;28;20549;-87
2023/09/08 02:15:26;;;;;;;11.70;10.50;;;16.00;85.20;;;;;;5026248;28;20188;-87
2023/09/08 02:17:56;;;;;;;11.77;10.55;;;15.90;85.20;;;;;;5026951;28;20204;-87
2023/09/08 02:20:22;;;;;;;12.35;11.18;;;15.80;85.20;;;;;;5026165;28;20193;-86
2023/09/08 02:22:50;;;;;;;13.75;12.40;;;15.80;85.20;;;;;;5025433;28;20180;-87
2023/09/08 02:25:15;;;;;;;15.88;12.50;;;15.80;85.10;;;;;;5025395;28;20177;-86
2023/09/08 02:27:41;;;;;;;13.93;12.48;;;15.80;85.10;;;;;;5027051;28;20580;-87
2023/09/08 02:30:07;;;;;;;13.45;11.93;;;15.80;85.40;;;;;;5027032;28;20249;-87
2023/09/08 02:32:32;;;;;;;13.13;11.85;;;15.70;85.40;;;;;;5022385;28;20169;-85
2023/09/08 02:34:58;;;;;;;13.57;12.23;;;15.70;85.40;;;;;;5013972;28;20204;-85
2023/09/08 02:37:23;;;;;;;13.75;12.52;;;15.70;85.60;;;;;;5015329;28;20279;-85
2023/09/08 02:39:49;;;;;;;13.45;12.13;;;15.60;85.70;;;;;;5014049;28;20182;-85
2023/09/08 02:42:14;;;;;;;12.65;11.55;;;15.60;85.70;;;;;;5013780;28;20199;-85
2023/09/08 02:44:40;;;;;;;13.35;11.52;;;15.60;85.80;;;;;;5015377;28;20261;-85
2023/09/08 02:47:06;;;;;;;12.23;11.07;;;15.50;86.10;;;;;;5013745;28;20180;-85
2023/09/08 02:49:31;;;;;;;12.13;10.80;;;15.60;86.10;;;;;;5014206;28;20201;-85
2023/09/08 02:51:57;;;;;;;15.20;12.00;;;15.60;86.10;;;;;;5013686;28;20193;-85
2023/09/08 02:54:23;;;;;;;11.65;10.55;;;15.50;86.20;;;;;;5015225;28;20176;-85
2023/09/08 02:56:48;;;;;;;12.02;10.60;;;15.50;86.30;;;;;;5014717;28;20197;-85
2023/09/08 02:59:14;;;;;;;12.48;11.27;;;15.50;86.40;;;;;;5013402;28;20188;-85
2023/09/08 03:01:39;;;;;;;11.88;10.65;;;15.40;86.40;;;;;;5013097;28;20216;-85
2023/09/08 03:04:05;;;;;;;13.43;12.13;;;15.40;86.40;;;;;;5013336;28;20185;-85
2023/09/08 03:06:31;;;;;;;13.07;10.93;;;15.40;86.50;;;;;;5013430;28;20268;-85
2023/09/08 03:08:58;;;;;;;13.98;11.50;;;15.30;86.70;;;;;;5014483;28;20225;-85
2023/09/08 03:11:24;;;;;;;12.98;10.80;;;15.30;86.80;;;;;;5014772;28;20190;-85
2023/09/08 03:13:50;;;;;;;12.82;11.60;;;15.30;86.80;;;;;;5013221;28;20183;-84
2023/09/08 03:16:15;;;;;;;12.93;11.40;;;15.20;86.90;;;;;;5013012;28;20181;-85
2023/09/08 03:18:41;;;;;;;13.38;11.70;;;15.20;86.90;;;;;;5013098;28;20209;-85
2023/09/08 03:21:10;;;;;;;14.98;11.75;;;15.20;86.80;;;;;;5012975;28;20244;-85
2023/09/08 03:23:37;;;;;;;13.43;11.95;;;15.20;86.80;;;;;;5012852;28;20170;-85
2023/09/08 03:26:03;;;;;;;12.70;11.57;;;15.20;86.90;;;;;;5012963;28;20177;-85
2023/09/08 03:28:29;;;;;;;13.60;12.25;;;15.20;86.80;;;;;;5014167;28;20211;-85
2023/09/08 03:30:54;;;;;;;16.00;11.45;;;15.20;86.80;;;;;;5012867;28;20619;-85
2023/09/08 03:33:20;;;;;;;16.58;11.48;;;15.20;86.70;;;;;;5014016;28;20181;-85
2023/09/08 03:35:45;;;;;;;13.48;12.18;;;15.20;86.70;;;;;;5012640;28;20207;-85
2023/09/08 03:38:11;;;;;;;12.57;11.43;;;15.20;86.70;;;;;;5012873;28;20201;-85
2023/09/08 03:40:37;;;;;;;15.88;12.15;;;15.20;86.70;;;;;;5012635;28;20212;-84
2023/09/08 03:43:03;;;;;;;13.70;11.93;;;15.20;86.80;;;;;;5013976;28;20197;-85
2023/09/08 03:45:29;;;;;;;14.90;12.77;;;15.10;86.80;;;;;;5014081;28;20170;-85
2023/09/08 03:47:54;;;;;;;12.93;11.68;;;15.20;86.90;;;;;;5013863;28;20260;-85
2023/09/08 03:50:20;;;;;;;14.25;11.40;;;15.10;86.80;;;;;;5012475;28;20188;-84
2023/09/08 03:52:45;;;;;;;12.77;11.60;;;15.00;86.90;;;;;;5012491;28;20188;-85
2023/09/08 03:55:11;;;;;;;13.23;11.95;;;15.00;87.10;;;;;;5012558;28;20235;-85
2023/09/08 03:57:37;;;;;;;13.23;11.93;;;15.00;87.20;;;;;;5013950;28;20619;-85
2023/09/08 04:00:05;;;;;;;17.83;11.57;;;14.90;87.30;;;;;;5013629;28;20169;-84
2023/09/08 04:02:30;;;;;;;14.35;12.02;;;14.90;87.40;;;;;;5012389;28;20193;-85
2023/09/08 04:04:56;;;;;;;13.07;11.70;;;14.90;87.40;;;;;;5012717;28;20527;-85
2023/09/08 04:07:21;;;;;;;12.83;11.53;;;14.90;87.50;;;;;;5012572;28;20223;-85
2023/09/08 04:09:47;;;;;;;12.67;11.30;;;14.90;87.50;;;;;;5013549;28;20177;-85
2023/09/08 04:12:12;;;;;;;13.13;11.77;;;14.90;87.50;;;;;;5012161;28;20205;-85
2023/09/08 04:14:38;;;;;;;13.13;11.77;;;14.90;87.50;;;;;;5012660;28;20216;-85
2023/09/08 04:17:03;;;;;;;12.77;11.50;;;14.90;87.60;;;;;;5012165;28;20213;-85
2023/09/08 04:19:29;;;;;;;16.80;12.50;;;14.90;87.70;;;;;;5013691;28;20177;-85
2023/09/08 04:21:54;;;;;;;13.53;12.33;;;14.90;87.70;;;;;;5012161;28;20703;-85
2023/09/08 04:24:20;;;;;;;15.02;12.40;;;14.90;87.70;;;;;;5012267;28;20637;-85
2023/09/08 04:26:45;;;;;;;14.40;12.90;;;14.80;87.80;;;;;;5012221;28;20181;-85
2023/09/08 04:29:11;;;;;;;12.52;11.25;;;14.80;87.90;;;;;;5012152;28;20184;-85
2023/09/08 04:31:37;;;;;;;12.07;10.90;;;14.80;88.10;;;;;;5015059;28;20203;-85
2023/09/08 04:34:02;;;;;;;19.80;12.90;;;14.70;88.20;;;;;;5016186;28;20191;-85
2023/09/08 04:36:30;;;;;;;18.80;17.03;;;14.70;88.30;;;;;;5017782;28;20189;-85
2023/09/08 04:38:56;;;;;;;20.00;18.40;;;14.70;88.30;;;;;;5016541;28;20610;-85
2023/09/08 04:41:21;;;;;;;15.50;12.60;;;14.70;88.40;;;;;;5017200;28;20219;-85
2023/09/08 04:43:47;;;;;;;13.57;12.27;;;14.70;88.30;;;;;;5015955;28;20177;-85
2023/09/08 04:46:12;;;;;;;13.10;11.80;;;14.80;88.40;;;;;;5017299;28;20173;-85
2023/09/08 04:48:38;;;;;;;18.53;16.73;;;14.80;88.30;;;;;;5015956;28;20660;-85
2023/09/08 04:51:03;;;;;;;19.63;17.73;;;14.70;88.30;;;;;;5016100;28;20193;-85
2023/09/08 04:53:29;;;;;;;13.57;12.23;;;14.80;88.30;;;;;;5015950;28;20262;-85
2023/09/08 04:55:54;;;;;;;14.20;12.70;;;14.80;88.30;;;;;;5017139;28;20205;-85
2023/09/08 04:58:20;;;;;;;14.87;12.40;;;14.80;88.30;;;;;;5015740;28;20212;-85
2023/09/08 05:00:45;;;;;;;16.53;12.67;;;14.80;88.30;;;;;;5016828;28;20275;-85
2023/09/08 05:03:11;;;;;;;14.30;12.50;;;14.80;88.40;;;;;;5015607;28;20239;-85
2023/09/08 05:05:36;;;;;;;14.05;12.75;;;14.80;88.50;;;;;;5016509;28;20644;-85
2023/09/08 05:08:02;;;;;;;19.27;12.83;;;14.90;88.50;;;;;;5015510;28;20644;-85
2023/09/08 05:10:27;;;;;;;16.90;13.15;;;15.00;88.40;;;;;;5015325;28;20259;-84
2023/09/08 05:12:53;;;;;;;14.15;12.60;;;15.10;88.30;;;;;;5015612;28;20173;-85
2023/09/08 05:15:20;;;;;;;14.13;12.23;;;15.10;88.10;;;;;;5015630;28;20177;-85
2023/09/08 05:17:47;;;;;;;13.80;12.40;;;15.20;88.00;;;;;;5015146;28;20202;-85
2023/09/08 05:20:12;;;;;;;14.32;12.60;;;15.30;87.70;;;;;;5015366;28;20177;-85
2023/09/08 05:22:38;;;;;;;16.73;12.27;;;15.30;87.50;;;;;;5016470;28;20252;-85
2023/09/08 05:25:04;;;;;;;14.93;12.43;;;15.40;87.40;;;;;;5016306;28;20641;-85
2023/09/08 05:27:29;;;;;;;16.60;11.90;;;15.50;87.30;;;;;;5015170;28;20174;-85
2023/09/08 05:29:55;;;;;;;13.00;11.77;;;15.50;87.20;;;;;;5015115;28;20579;-85
2023/09/08 05:32:20;;;;;;;13.45;11.95;;;15.60;87.20;;;;;;5015096;28;20197;-85
2023/09/08 05:34:46;;;;;;;13.27;11.82;;;15.60;87.10;;;;;;5016167;28;20177;-85
2023/09/08 05:37:11;;;;;;;14.10;12.70;;;15.70;87.00;;;;;;5014981;28;20633;-85
2023/09/08 05:39:37;;;;;;;14.63;11.75;;;15.80;86.90;;;;;;5016312;28;20751;-85
2023/09/08 05:42:03;;;;;;;20.30;11.75;;;15.90;86.60;;;;;;5013770;28;20200;-85
2023/09/08 05:44:28;;;;;;;19.30;12.13;;;16.00;86.40;;;;;;5016019;28;20644;-85
2023/09/08 05:46:54;;;;;;;13.90;12.60;;;16.00;86.20;;;;;;5014868;28;20264;-85
2023/09/08 05:49:19;;;;;;;14.30;12.23;;;16.10;86.00;;;;;;5016293;28;20177;-85
2023/09/08 05:51:45;;;;;;;17.73;12.23;;;16.20;85.90;;;;;;5015912;28;20205;-85
2023/09/08 05:54:11;;;;;;;14.18;12.10;;;16.30;85.80;;;;;;5014826;28;20185;-85
2023/09/08 05:56:37;;;;;;;15.63;12.40;;;16.30;85.70;;;;;;5014620;28;20173;-85
2023/09/08 05:59:03;;;;;;;14.18;12.35;;;16.40;85.80;;;;;;5014549;28;20567;-85
2023/09/08 06:01:30;;;;;;;17.70;13.32;;;16.50;85.60;;;;;;5015666;28;20260;-85
2023/09/08 06:03:56;;;;;;;14.23;12.75;;;16.50;85.70;;;;;;5014442;28;20273;-85
2023/09/08 06:06:21;;;;;;;15.60;13.98;;;16.50;85.80;;;;;;5014961;28;20201;-85
2023/09/08 06:08:47;;;;;;;14.55;13.10;;;16.50;85.80;;;;;;5014373;28;20204;-85
2023/09/08 06:11:13;;;;;;;15.85;13.10;;;16.60;85.80;;;;;;5015443;28;20204;-85
2023/09/08 06:13:38;;;;;;;16.65;12.32;;;16.70;85.60;;;;;;5014568;28;20177;-85
2023/09/08 06:16:04;;;;;;;15.32;12.93;;;16.70;85.40;;;;;;5015590;28;20261;-85
2023/09/08 06:18:30;;;;;;;18.02;13.10;;;16.80;85.30;;;;;;5015498;28;20327;-85
2023/09/08 06:20:56;;;;;;;16.30;14.30;;;16.80;85.20;;;;;;5014492;28;20224;-85
2023/09/08 06:23:22;;;;;;;16.52;14.02;;;16.90;85.10;;;;;;5014875;28;20601;-85
2023/09/08 06:25:48;;;;;;;16.65;14.27;;;17.10;85.00;;;;;;5014717;28;20174;-85
2023/09/08 06:28:14;;;;;;;17.73;13.95;;;17.20;84.90;;;;;;5016325;28;20192;-85
2023/09/08 06:30:41;;;;;;;15.77;13.95;;;17.20;84.80;;;;;;5015796;28;20676;-85
2023/09/08 06:33:07;;;;;;;16.48;13.85;;;17.30;84.40;;;;;;5015497;28;20185;-85
2023/09/08 06:35:33;;;;;;;20.40;13.43;;;17.40;84.20;;;;;;5015980;28;20170;-85
2023/09/08 06:38:00;;;;;;;15.63;14.13;;;17.50;84.00;;;;;;5014358;28;20206;-85
2023/09/08 06:40:25;;;;;;;14.30;12.90;;;17.60;83.90;;;;;;5014349;28;20292;-85
2023/09/08 06:42:51;;;;;;;19.55;13.57;;;17.70;83.30;;;;;;5014257;28;20197;-85
2023/09/08 06:45:17;;;;;;;13.77;12.57;;;17.70;83.30;;;;;;5014122;28;20247;-85
2023/09/08 06:47:43;;;;;;;19.23;13.60;;;17.80;83.20;;;;;;5014357;28;20177;-85
2023/09/08 06:50:09;;;;;;;16.98;12.95;;;17.90;82.70;;;;;;5014081;28;20633;-86
2023/09/08 06:52:35;;;;;;;14.68;12.43;;;18.10;82.40;;;;;;5015039;28;20722;-85
2023/09/08 06:55:01;;;;;;;19.58;13.02;;;18.20;82.10;;;;;;5014927;28;20177;-85
2023/09/08 06:57:26;;;;;;;15.73;13.18;;;18.20;81.80;;;;;;5015155;28;20251;-85
2023/09/08 06:59:52;;;;;;;17.00;13.95;;;18.30;81.90;;;;;;5013664;28;20173;-85
2023/09/08 07:02:18;;;;;;;16.13;14.43;;;18.40;81.70;;;;;;5013591;28;20584;-85
2023/09/08 07:04:43;;;;;;;15.45;13.85;;;18.50;81.10;;;;;;5014924;28;20169;-85
2023/09/08 07:07:10;;;;;;;15.70;13.40;;;18.60;81.10;;;;;;5015239;28;20264;-85
2023/09/08 07:09:36;;;;;;;16.45;14.75;;;18.70;80.90;;;;;;5013483;28;20174;-85
2023/09/08 07:12:08;;;;;;;16.10;14.60;;;18.80;80.70;;;;;;5013405;28;20197;-85
2023/09/08 07:14:34;;;;;;;18.42;15.43;;;19.00;80.90;;;;;;5014739;28;20164;-85
2023/09/08 07:17:00;;;;;;;16.63;14.93;;;19.10;80.40;;;;;;5013239;28;20574;-85
2023/09/08 07:19:26;;;;;;;16.52;14.90;;;19.20;80.20;;;;;;5014725;28;20652;-85
2023/09/08 07:21:52;;;;;;;15.55;14.00;;;19.20;79.00;;;;;;5013392;28;20199;-85
2023/09/08 07:24:18;;;;;;;15.50;13.90;;;19.30;78.80;;;;;;5013322;28;20173;-85
2023/09/08 07:26:43;;;;;;;15.65;14.02;;;19.50;79.20;;;;;;5013243;28;20547;-86
2023/09/08 07:29:09;;;;;;;16.17;14.40;;;19.50;78.60;;;;;;5014682;28;20181;-85
2023/09/08 07:31:35;;;;;;;15.77;14.38;;;19.60;78.30;;;;;;5013306;28;20681;-85
2023/09/08 07:34:00;;;;;;;15.48;14.02;;;19.60;77.80;;;;;;5014273;28;20165;-86
2023/09/08 07:36:28;;;;;;;16.13;14.52;;;19.80;78.00;;;;;;5013332;28;20183;-87
2023/09/08 07:38:53;;;;;;;18.83;15.40;;;19.90;77.50;;;;;;5013055;28;20598;-86
2023/09/08 07:41:19;;;;;;;18.25;14.38;;;20.00;77.20;;;;;;5014254;28;20220;-86
2023/09/08 07:43:45;;;;;;;16.90;15.20;;;20.20;77.40;;;;;;5014039;28;20253;-86
2023/09/08 07:46:11;;;;;;;16.30;14.80;;;20.20;77.30;;;;;;5012639;28;20178;-85
2023/09/08 07:48:36;;;;;;;16.08;14.48;;;20.40;76.00;;;;;;5014487;28;20173;-86
2023/09/08 07:51:02;;;;;;;18.10;16.02;;;20.40;75.50;;;;;;5013763;28;20197;-86
2023/09/08 07:53:28;;;;;;;18.67;16.98;;;20.60;75.50;;;;;;5012715;28;20555;-86
2023/09/08 07:55:53;;;;;;;18.33;16.73;;;20.70;73.90;;;;;;5012660;28;20551;-85
2023/09/08 07:58:19;;;;;;;18.80;17.05;;;20.70;73.20;;;;;;5012864;28;20208;-86
2023/09/08 08:00:45;;;;;;;19.17;17.48;;;20.80;72.90;;;;;;5013779;28;20688;-85
2023/09/08 08:03:10;;;;;;;20.00;18.10;;;20.90;73.00;;;;;;5012600;28;20589;-86
2023/09/08 08:05:36;;;;;;;28.15;25.27;;;21.00;72.40;;;;;;5013327;28;20170;-86
2023/09/08 08:08:01;;;;;;;28.52;26.33;;;21.00;71.50;;;;;;5012413;28;20264;-86
2023/09/08 08:10:27;;;;;;;27.63;25.48;;;21.10;71.70;;;;;;5012490;28;20204;-85
2023/09/08 08:12:53;;;;;;;23.67;18.70;;;21.20;71.60;;;;;;5012551;28;20640;-86
2023/09/08 08:15:22;;;;;;;21.25;19.25;;;21.30;71.20;;;;;;5012396;28;20177;-86
2023/09/08 08:17:48;;;;;;;27.05;25.05;;;21.30;70.20;;;;;;5012307;28;20209;-85
2023/09/08 08:20:17;;;;;;;30.10;27.08;;;21.40;70.70;;;;;;5013548;28;20653;-85
2023/09/08 08:22:45;;;;;;;24.50;22.67;;;21.60;70.60;;;;;;5012348;28;20173;-86
2023/09/08 08:25:11;;;;;;;20.90;19.08;;;21.70;70.20;;;;;;5013606;28;20223;-86
2023/09/08 08:27:36;;;;;;;22.77;20.75;;;21.80;69.20;;;;;;5013997;28;20169;-86
2023/09/08 08:30:03;;;;;;;29.00;26.58;;;21.90;68.40;;;;;;5013044;28;20192;-86
2023/09/08 08:32:28;;;;;;;32.03;29.42;;;22.00;68.50;;;;;;5014478;28;20173;-87
2023/09/08 08:34:54;;;;;;;23.45;21.35;;;22.00;67.90;;;;;;5012471;28;20177;-86
2023/09/08 08:37:20;;;;;;;23.23;21.10;;;22.20;68.80;;;;;;5012130;28;20707;-87
2023/09/08 08:39:45;;;;;;;23.98;21.83;;;22.20;68.60;;;;;;5014715;28;20165;-86
2023/09/08 08:42:11;;;;;;;23.50;21.25;;;22.40;68.70;;;;;;5013000;28;20264;-86
2023/09/08 08:44:38;;;;;;;23.17;20.67;;;22.60;69.40;;;;;;5013099;28;20197;-86
2023/09/08 08:47:06;;;;;;;22.45;20.20;;;22.70;70.00;;;;;;5013156;28;20188;-86
2023/09/08 08:49:33;;;;;;;22.65;20.55;;;22.70;67.90;;;;;;5013266;28;20177;-86
2023/09/08 08:51:58;;;;;;;22.67;20.75;;;22.70;66.10;;;;;;5012982;28;20225;-87
2023/09/08 08:54:24;;;;;;;23.70;21.70;;;22.80;65.80;;;;;;5013647;28;20177;-86
2023/09/08 08:56:50;;;;;;;23.67;21.70;;;23.10;66.80;;;;;;5012146;28;20672;-86
2023/09/08 08:59:16;;;;;;;22.77;20.88;;;23.20;66.60;;;;;;5012559;28;20173;-86
2023/09/08 09:01:42;;;;;;;22.98;20.98;;;23.30;64.90;;;;;;5012715;28;20224;-87
2023/09/08 09:04:09;;;;;;;23.20;21.42;;;23.50;65.60;;;;;;5012455;28;20216;-86
2023/09/08 09:06:35;;;;;;;22.70;20.65;;;23.60;64.40;;;;;;5013393;28;20165;-86
2023/09/08 09:09:01;;;;;;;22.08;20.15;;;23.70;64.90;;;;;;5012544;28;20176;-86
2023/09/08 09:11:27;;;;;;;22.48;20.25;;;23.90;65.40;;;;;;5011980;28;20205;-86
2023/09/08 09:13:52;;;;;;;23.02;20.85;;;23.90;63.60;;;;;;5013355;28;20594;-86
2023/09/08 09:16:18;;;;;;;22.58;20.77;;;24.10;64.10;;;;;;5013410;28;20557;-86
2023/09/08 09:19:04;;;;;;;22.67;20.60;;;24.20;63.30;;;;;;5015476;28;20680;-86
2023/09/08 09:21:43;;;;;;;23.02;20.95;;;24.20;63.40;;;;;;5015229;28;20746;-86
2023/09/08 09:24:15;;;;;;;23.40;20.92;;;24.30;61.70;;;;;;5017742;28;20193;-85
2023/09/08 09:26:40;;;;;;;25.10;22.65;;;24.30;62.80;;;;;;5016510;28;20178;-86
2023/09/08 09:29:14;;;;;;;22.77;20.90;;;24.50;63.40;;;;;;5016444;28;20174;-86
2023/09/08 09:31:53;;;;;;;24.60;22.40;;;24.60;63.80;;;;;;5015494;28;20244;-86
2023/09/08 09:34:20;;;;;;;24.67;22.45;;;24.70;62.30;;;;;;5015739;28;20173;-86
2023/09/08 09:36:50;;;;;;;26.90;24.50;;;24.90;62.00;;;;;;5016681;28;20591;-86
2023/09/08 09:39:26;;;;;;;27.75;25.00;;;24.90;61.10;;;;;;5015899;28;20551;-86
2023/09/08 09:41:56;;;;;;;26.77;24.30;;;25.10;62.60;;;;;;5015726;28;20329;-86
2023/09/08 09:44:23;;;;;;;25.98;23.88;;;25.20;61.40;;;;;;5016036;28;20624;-86
2023/09/08 09:46:51;;;;;;;26.63;23.92;;;25.40;60.80;;;;;;5015236;28;20177;-86
2023/09/08 09:49:20;;;;;;;24.90;22.92;;;25.50;60.10;;;;;;5014803;28;20180;-86
2023/09/08 09:51:47;;;;;;;25.50;23.60;;;25.60;59.70;;;;;;5016326;28;20186;-86
2023/09/08 09:54:14;;;;;;;24.95;22.55;;;25.70;60.10;;;;;;5014805;28;20177;-85
2023/09/08 09:56:41;;;;;;;25.23;23.23;;;25.80;58.90;;;;;;5016253;28;20252;-86
2023/09/08 09:59:12;;;;;;;24.80;22.80;;;25.90;58.60;;;;;;5015164;28;20268;-86
2023/09/08 10:01:39;;;;;;;26.17;23.83;;;26.00;57.90;;;;;;5016252;28;20308;-86
2023/09/08 10:04:05;;;;;;;25.38;22.98;;;26.10;57.60;;;;;;5014933;28;20178;-86
2023/09/08 10:06:32;;;;;;;26.88;24.20;;;26.20;57.30;;;;;;5016096;28;20169;-86
2023/09/08 10:09:01;;;;;;;25.40;23.02;;;26.20;57.10;;;;;;5015993;28;20176;-86
2023/09/08 10:11:30;;;;;;;24.88;22.80;;;26.30;58.70;;;;;;5016150;28;20383;-85
2023/09/08 10:13:58;;;;;;;25.75;23.27;;;26.40;58.50;;;;;;5017744;28;20200;-85
2023/09/08 10:16:27;;;;;;;24.90;22.65;;;26.50;57.50;;;;;;5016312;28;20667;-86
2023/09/08 10:18:54;;;;;;;30.98;23.25;;;26.60;57.70;;;;;;5015436;28;20676;-85
2023/09/08 10:21:23;;;;;;;24.17;22.48;;;26.60;57.10;;;;;;5016371;28;20231;-85
2023/09/08 10:24:05;;;;;;;24.85;23.00;;;26.70;57.30;;;;;;5016596;28;20173;-86
2023/09/08 10:26:32;;;;;;;23.88;21.73;;;26.80;56.30;;;;;;5017729;28;20640;-85
2023/09/08 10:28:58;;;;;;;25.00;22.80;;;27.00;56.60;;;;;;5016596;28;20196;-85
2023/09/08 10:31:26;;;;;;;24.10;21.83;;;27.10;56.20;;;;;;5017564;28;20691;-85
2023/09/08 10:33:56;;;;;;;24.05;21.85;;;27.20;55.30;;;;;;5015562;28;20177;-85
2023/09/08 10:36:24;;;;;;;23.85;21.48;;;27.30;53.80;;;;;;5017165;28;20633;-86
2023/09/08 10:38:51;;;;;;;23.55;21.50;;;27.40;55.60;;;;;;5015401;28;20201;-85
2023/09/08 10:41:17;;;;;;;24.05;22.05;;;27.50;55.90;;;;;;5017083;28;20275;-86
2023/09/08 10:43:43;;;;;;;23.85;21.80;;;27.70;55.70;;;;;;5017074;28;20178;-85
2023/09/08 10:46:09;;;;;;;23.05;21.20;;;27.80;53.20;;;;;;5016534;28;20667;-86
2023/09/08 10:48:45;;;;;;;22.00;20.30;;;27.70;54.90;;;;;;5015533;28;20182;-85
2023/09/08 10:51:14;;;;;;;21.60;20.00;;;27.80;55.20;;;;;;5017032;28;20200;-86
2023/09/08 10:53:40;;;;;;;21.63;19.83;;;27.80;55.00;;;;;;5016759;28;20648;-86
2023/09/08 10:56:06;;;;;;;22.02;20.05;;;28.10;54.40;;;;;;5015295;28;20227;-86
2023/09/08 10:58:42;;;;;;;22.25;20.15;;;28.30;54.70;;;;;;5017188;28;20201;-86
2023/09/08 11:01:12;;;;;;;22.48;20.58;;;28.30;50.70;;;;;;5015217;28;20219;-86
2023/09/08 11:03:37;;;;;;;20.90;19.30;;;28.40;54.10;;;;;;5014840;28;20177;-86
2023/09/08 11:06:06;;;;;;;21.83;20.02;;;28.20;53.80;;;;;;5017247;28;20308;-86
2023/09/08 11:08:38;;;;;;;21.83;19.63;;;28.40;52.50;;;;;;5015440;28;20648;-85
2023/09/08 11:11:04;;;;;;;22.45;20.35;;;28.40;54.00;;;;;;5016799;28;20672;-85
2023/09/08 11:13:29;;;;;;;21.75;19.73;;;28.60;52.70;;;;;;5016748;28;20170;-85
2023/09/08 11:15:55;;;;;;;23.05;20.83;;;28.70;49.80;;;;;;5015430;28;20177;-85
2023/09/08 11:18:30;;;;;;;22.98;21.08;;;28.70;50.30;;;;;;5015676;28;20197;-86
2023/09/08 11:20:57;;;;;;;23.23;21.27;;;28.70;50.40;;;;;;5015702;28;20611;-86
2023/09/08 11:23:23;;;;;;;23.27;21.48;;;28.70;49.10;;;;;;5014639;28;20174;-86
2023/09/08 11:25:50;;;;;;;24.27;21.77;;;28.50;51.90;;;;;;5014098;28;20177;-85
2023/09/08 11:28:17;;;;;;;23.10;21.20;;;28.50;50.60;;;;;;5014879;28;20591;-86
2023/09/08 11:30:43;;;;;;;23.88;22.08;;;28.70;51.90;;;;;;5015638;28;20193;-86
2023/09/08 11:33:24;;;;;;;22.27;20.55;;;29.00;52.70;;;;;;5014906;28;20170;-86
2023/09/08 11:35:50;;;;;;;22.52;20.20;;;29.00;52.80;;;;;;5013966;28;20166;-86
2023/09/08 11:38:16;;;;;;;22.02;20.00;;;29.10;52.90;;;;;;5014611;28;20280;-85
2023/09/08 11:40:42;;;;;;;21.45;19.33;;;29.20;50.40;;;;;;5012464;28;20232;-86
2023/09/08 11:43:07;;;;;;;21.88;19.92;;;29.20;51.30;;;;;;5014113;28;20169;-86
2023/09/08 11:45:36;;;;;;;22.05;20.30;;;29.20;51.30;;;;;;5014099;28;20185;-86
2023/09/08 11:48:03;;;;;;;23.67;21.85;;;29.50;52.90;;;;;;5016125;28;20216;-86
2023/09/08 11:50:30;;;;;;;27.38;25.38;;;29.70;50.80;;;;;;5014121;28;20256;-86
2023/09/08 11:52:57;;;;;;;28.92;26.80;;;29.80;51.40;;;;;;5014470;28;20174;-85
2023/09/08 11:55:23;;;;;;;30.05;27.60;;;29.70;49.80;;;;;;5014752;28;20184;-85
2023/09/08 11:57:54;;;;;;;23.55;21.15;;;29.70;50.70;;;;;;5012587;28;20205;-87
2023/09/08 12:00:22;;;;;;;22.83;20.92;;;29.70;48.60;;;;;;5014363;28;20161;-86
2023/09/08 12:02:48;;;;;;;23.02;21.13;;;29.70;50.10;;;;;;5013196;28;20185;-86
2023/09/08 12:05:25;;;;;;;21.92;20.17;;;29.70;49.70;;;;;;5013951;28;20180;-87
2023/09/08 12:07:52;;;;;;;22.77;21.02;;;29.70;49.40;;;;;;5014016;28;20181;-87
2023/09/08 12:10:18;;;;;;;22.13;20.52;;;29.60;49.10;;;;;;5013617;28;20228;-87
2023/09/08 12:12:55;;;;;;;22.08;20.48;;;29.70;50.10;;;;;;5012433;28;20232;-87
2023/09/08 12:15:40;;;;;;;22.70;20.77;;;29.90;48.60;;;;;;5013036;28;20172;-87
2023/09/08 12:18:13;;;;;;;21.98;20.48;;;30.00;47.60;;;;;;5013026;28;20678;-86
2023/09/08 12:20:39;;;;;;;21.67;20.08;;;30.20;50.10;;;;;;5013819;28;20200;-87
2023/09/08 12:23:14;;;;;;;22.65;20.75;;;29.90;49.60;;;;;;5012298;28;20177;-87
2023/09/08 12:25:48;;;;;;;22.00;20.30;;;30.10;49.20;;;;;;5013717;28;20161;-87
2023/09/08 12:28:13;;;;;;;22.55;20.70;;;30.30;47.00;;;;;;5012547;28;20272;-87
2023/09/08 12:30:39;;;;;;;22.13;20.30;;;30.20;46.90;;;;;;5013777;28;20224;-87
2023/09/08 12:33:05;;;;;;;22.85;20.60;;;30.20;47.50;;;;;;5013602;28;20252;-86
2023/09/08 12:35:31;;;;;;;23.40;20.92;;;30.20;46.70;;;;;;5013469;28;20172;-87
2023/09/08 12:38:02;;;;;;;22.00;20.33;;;30.10;47.40;;;;;;5012011;28;20592;-87
2023/09/08 12:40:30;;;;;;;23.23;21.10;;;30.20;47.30;;;;;;5011916;28;20193;-86
2023/09/08 12:42:57;;;;;;;22.98;21.05;;;30.30;46.30;;;;;;5013514;28;20180;-86
2023/09/08 12:45:25;;;;;;;22.30;20.58;;;30.20;46.40;;;;;;5013124;28;20170;-86